Time;durP1;ratioP1;P1;durP2;ratioP2;P2;SDS_P1;SDS_P2;PMS_P1;PMS_P2;Temp;Humidity;BMP_temperature;BMP_pressure;BME280_temperature;BME280_humidity;BME280_pressure;Samples;Min_cycle;Max_cycle;Signal;HPM_P1;HPM_P2
2022/01/04 00:00:52;;;;;;;1.30;0.93;;;9.50;99.90;;;;;;5047450;28;20630;-79
2022/01/04 00:03:19;;;;;;;3.53;1.23;;;;;;;;;;5042186;28;20666;-79
2022/01/04 00:05:46;;;;;;;1.17;1.07;;;;;;;;;;5043191;28;20733;-79
2022/01/04 00:08:13;;;;;;;1.10;0.90;;;;;;;;;;5039318;28;20665;-79
2022/01/04 00:10:41;;;;;;;1.17;1.17;;;;;;;;;;5036662;28;20649;-79
2022/01/04 00:13:24;;;;;;;1.07;0.80;;;;;;;;;;5042860;28;21213;-79
2022/01/04 00:15:53;;;;;;;1.53;0.97;;;;;;;;;;5036793;28;20734;-79
2022/01/04 00:18:20;;;;;;;1.07;0.80;;;;;;;;;;5041904;28;20737;-79
2022/01/04 00:20:48;;;;;;;2.97;0.80;;;;;;;;;;5042840;28;20666;-79
2022/01/04 00:23:15;;;;;;;2.00;1.10;;;;;;;;;;5035608;28;20691;-79
2022/01/04 00:25:42;;;;;;;1.13;1.10;;;;;;;;;;5043251;28;20730;-79
2022/01/04 00:28:09;;;;;;;0.63;0.63;;;;;;;;;;5041465;28;20704;-79
2022/01/04 00:30:37;;;;;;;2.00;1.23;;;9.40;99.90;;;;;;5040188;28;20738;-79
2022/01/04 00:33:07;;;;;;;2.60;1.20;;;9.40;99.90;;;;;;5040820;28;20733;-79
2022/01/04 00:35:34;;;;;;;1.10;1.00;;;;;;;;;;5039820;28;20662;-79
2022/01/04 00:38:01;;;;;;;2.17;1.37;;;;;;;;;;5039225;28;20726;-80
2022/01/04 00:40:28;;;;;;;3.73;1.00;;;;;;;;;;5041974;28;20689;-79
2022/01/04 00:42:58;;;;;;;1.33;1.23;;;;;;;;;;5038420;28;21324;-79
2022/01/04 00:45:25;;;;;;;1.00;0.80;;;;;;;;;;5041605;28;20639;-79
2022/01/04 00:50:38;;;;;;;3.27;1.10;;;;;;;;;;5041369;28;20717;-80
2022/01/04 00:53:07;;;;;;;1.00;1.00;;;9.40;99.90;;;;;;5039482;28;20642;-79
2022/01/04 00:55:34;;;;;;;1.20;1.10;;;9.30;99.90;;;;;;5043905;28;20630;-79
2022/01/04 00:58:02;;;;;;;1.30;1.20;;;9.40;99.90;;;;;;5039614;28;20631;-79
2022/01/04 01:00:29;;;;;;;1.17;0.87;;;;;;;;;;5045989;28;21083;-80
2022/01/04 01:02:57;;;;;;;2.00;1.17;;;;;;;;;;5049961;28;20661;-79
2022/01/04 01:05:25;;;;;;;0.77;0.70;;;;;;;;;;5041360;28;20701;-79
2022/01/04 01:07:55;;;;;;;0.97;0.97;;;;;;;;;;5046734;28;20733;-79
2022/01/04 01:13:09;;;;;;;1.43;1.00;;;;;;;;;;5045720;28;20935;-79
2022/01/04 01:15:38;;;;;;;1.03;1.00;;;;;;;;;;5047327;28;21552;-79
2022/01/04 01:18:05;;;;;;;4.50;1.20;;;;;;;;;;5038285;28;20659;-79
2022/01/04 01:20:33;;;;;;;1.43;1.03;;;;;;;;;;5042319;28;20635;-79
2022/01/04 01:23:03;;;;;;;1.33;1.23;;;9.40;99.90;;;;;;5045842;28;21103;-79
2022/01/04 01:25:32;;;;;;;2.03;1.17;;;;;;;;;;5044798;28;20634;-79
2022/01/04 01:28:00;;;;;;;1.50;1.40;;;;;;;;;;5042654;28;20641;-80
2022/01/04 01:30:29;;;;;;;1.53;1.13;;;;;;;;;;5043105;28;20734;-80
2022/01/04 01:32:56;;;;;;;1.43;1.33;;;;;;;;;;5043484;28;20636;-79
2022/01/04 01:35:24;;;;;;;1.60;1.27;;;;;;;;;;5042161;28;20631;-79
2022/01/04 01:37:51;;;;;;;1.67;1.57;;;;;;;;;;5043483;28;20676;-79
2022/01/04 01:40:19;;;;;;;2.43;1.17;;;9.40;99.90;;;;;;5044181;28;21277;-79
2022/01/04 01:42:46;;;;;;;1.40;1.30;;;;;;;;;;5046061;28;20634;-80
2022/01/04 01:45:16;;;;;;;2.27;1.50;;;;;;;;;;5043525;28;20680;-79
2022/01/04 01:47:43;;;;;;;1.30;1.20;;;;;;;;;;5042190;28;20738;-79
2022/01/04 01:50:11;;;;;;;1.90;1.37;;;9.40;99.90;;;;;;5044421;28;20634;-80
2022/01/04 01:52:40;;;;;;;2.33;1.60;;;9.40;99.90;;;;;;5045763;28;20729;-79
2022/01/04 01:55:09;;;;;;;1.63;1.37;;;9.40;99.90;;;;;;5044547;28;21151;-79
2022/01/04 01:57:38;;;;;;;1.23;1.13;;;;;;;;;;5045198;28;20684;-79
2022/01/04 02:00:07;;;;;;;1.60;1.50;;;9.30;99.90;;;;;;5039941;28;20619;-79
2022/01/04 02:02:35;;;;;;;1.70;1.60;;;;;;;;;;5043648;28;20693;-79
2022/01/04 02:05:02;;;;;;;1.90;1.13;;;9.10;99.90;;;;;;5044171;28;20719;-80
2022/01/04 02:07:31;;;;;;;1.63;1.53;;;9.30;99.90;;;;;;5044444;28;20703;-80
2022/01/04 02:10:03;;;;;;;1.83;1.43;;;;;;;;;;5043745;28;21071;-80
2022/01/04 02:12:32;;;;;;;1.87;1.30;;;9.20;99.90;;;;;;5042878;28;21767;-80
2022/01/04 02:15:01;;;;;;;1.57;1.30;;;9.20;99.90;;;;;;5039739;28;20725;-79
2022/01/04 02:17:29;;;;;;;3.50;1.57;;;;;;;;;;5038283;28;21081;-79
2022/01/04 02:19:58;;;;;;;1.90;1.70;;;9.30;99.90;;;;;;5038526;28;20630;-79
2022/01/04 02:22:26;;;;;;;1.67;1.57;;;;;;;;;;5043453;28;21073;-80
2022/01/04 02:24:54;;;;;;;1.93;1.53;;;9.30;99.90;;;;;;5040018;28;20765;-80
2022/01/04 02:27:21;;;;;;;1.47;1.37;;;;;;;;;;5041490;28;21233;-80
2022/01/04 02:29:49;;;;;;;2.63;2.17;;;9.20;99.90;;;;;;5038800;28;20611;-80
2022/01/04 02:32:17;;;;;;;1.95;1.80;;;9.40;99.90;;;;;;5044544;28;20772;-80
2022/01/04 02:34:49;;;;;;;2.30;2.10;;;9.40;99.90;;;;;;5043338;28;20755;-79
2022/01/04 02:37:20;;;;;;;2.23;2.03;;;9.40;99.90;;;;;;5040874;28;20550;-77
2022/01/04 02:39:48;;;;;;;2.07;1.87;;;9.50;99.90;;;;;;5034561;28;20642;-78
2022/01/04 02:42:15;;;;;;;1.40;1.30;;;9.50;99.90;;;;;;5042417;28;20634;-78
2022/01/04 02:44:43;;;;;;;1.70;1.60;;;;;;;;;;5044880;28;21257;-78
2022/01/04 02:47:10;;;;;;;2.10;1.90;;;;;;;;;;5041047;28;20630;-79
2022/01/04 02:49:38;;;;;;;1.90;1.80;;;;;;;;;;5042632;28;20635;-79
2022/01/04 02:52:05;;;;;;;2.30;1.63;;;;;;;;;;5043572;28;20666;-80
2022/01/04 02:54:34;;;;;;;2.17;1.97;;;9.40;99.90;;;;;;5039807;28;21235;-79
2022/01/04 02:57:01;;;;;;;3.40;1.57;;;;;;;;;;5040445;28;21015;-79
2022/01/04 02:59:28;;;;;;;1.73;1.63;;;;;;;;;;5040856;28;20626;-80
2022/01/04 03:01:56;;;;;;;2.00;1.80;;;;;;;;;;5044510;28;20630;-79
2022/01/04 03:04:23;;;;;;;2.73;1.97;;;;;;;;;;5043183;28;20654;-79
2022/01/04 03:06:50;;;;;;;2.90;1.80;;;;;;;;;;5043985;28;20626;-79
2022/01/04 03:09:17;;;;;;;2.63;2.07;;;;;;;;;;5033950;28;20648;-79
2022/01/04 03:11:46;;;;;;;2.10;1.87;;;;;;;;;;5043444;28;20626;-79
2022/01/04 03:14:13;;;;;;;1.83;1.73;;;9.60;99.90;;;;;;5043772;28;21214;-79
2022/01/04 03:16:40;;;;;;;2.90;1.90;;;;;;;;;;5042443;28;20642;-79
2022/01/04 03:19:09;;;;;;;1.70;1.60;;;;;;;;;;5040289;28;20675;-79
2022/01/04 03:21:38;;;;;;;2.20;1.73;;;9.60;99.90;;;;;;5041888;28;20689;-79
2022/01/04 03:24:06;;;;;;;2.50;1.47;;;9.60;99.90;;;;;;5043340;28;20670;-79
2022/01/04 03:26:34;;;;;;;1.73;1.63;;;;;;;;;;5039289;28;20684;-80
2022/01/04 03:29:03;;;;;;;1.90;1.80;;;9.60;99.90;;;;;;5042753;28;20635;-79
2022/01/04 03:31:31;;;;;;;1.67;1.57;;;;;;;;;;5040091;28;20641;-79
2022/01/04 03:33:58;;;;;;;2.67;1.73;;;;;;;;;;5043525;28;20639;-79
2022/01/04 03:36:26;;;;;;;1.70;1.47;;;9.60;99.90;;;;;;5043941;28;20623;-80
2022/01/04 03:38:55;;;;;;;1.60;1.50;;;9.60;99.90;;;;;;5041447;28;21089;-80
2022/01/04 03:41:24;;;;;;;2.13;1.90;;;9.30;99.90;;;;;;5041917;28;20638;-79
2022/01/04 03:43:51;;;;;;;1.40;1.30;;;;;;;;;;5043937;28;20658;-80
2022/01/04 03:46:20;;;;;;;1.90;1.40;;;9.60;99.90;;;;;;5038118;28;20642;-80
2022/01/04 03:48:48;;;;;;;1.60;1.50;;;;;;;;;;5039953;28;20642;-80
2022/01/04 03:51:15;;;;;;;1.80;1.57;;;;;;;;;;5041825;28;20635;-79
2022/01/04 03:53:42;;;;;;;1.40;1.40;;;;;;;;;;5043150;28;20642;-79
2022/01/04 03:56:09;;;;;;;2.43;1.53;;;;;;;;;;5043129;28;20662;-79
2022/01/04 03:58:37;;;;;;;3.17;1.67;;;;;;;;;;5039984;28;20626;-79
2022/01/04 04:01:04;;;;;;;2.10;1.70;;;;;;;;;;5042988;28;20649;-79
2022/01/04 04:03:33;;;;;;;1.57;1.47;;;9.60;99.90;;;;;;5039491;28;20663;-79
2022/01/04 04:06:01;;;;;;;1.57;1.40;;;9.40;99.90;;;;;;5045194;28;20646;-79
2022/01/04 04:08:28;;;;;;;2.73;1.67;;;9.60;99.90;;;;;;5049333;28;20640;-79
2022/01/04 04:10:56;;;;;;;1.57;1.30;;;;;;;;;;5038944;28;20630;-79
2022/01/04 04:13:23;;;;;;;1.80;1.70;;;;;;;;;;5038658;28;20642;-79
2022/01/04 04:15:50;;;;;;;1.30;1.20;;;;;;;;;;5043107;28;21248;-79
2022/01/04 04:18:17;;;;;;;1.53;1.43;;;;;;;;;;5042595;28;20702;-79
2022/01/04 04:20:47;;;;;;;0.90;0.90;;;;;;;;;;5039978;28;20627;-79
2022/01/04 04:23:14;;;;;;;1.30;1.20;;;;;;;;;;5039941;28;20638;-79
2022/01/04 04:25:42;;;;;;;1.30;1.20;;;;;;;;;;5042679;28;20682;-79
2022/01/04 04:28:09;;;;;;;1.30;1.20;;;;;;;;;;5035547;28;20628;-79
2022/01/04 04:30:36;;;;;;;1.43;1.33;;;9.80;99.90;;;;;;5039444;28;21195;-79
2022/01/04 04:33:04;;;;;;;2.10;1.30;;;;;;;;;;5044841;28;20697;-79
2022/01/04 04:35:31;;;;;;;1.30;1.20;;;;;;;;;;5038823;28;20633;-79
2022/01/04 04:38:01;;;;;;;1.27;1.20;;;;;;;;;;5039558;28;21257;-78
2022/01/04 04:40:28;;;;;;;1.63;1.53;;;;;;;;;;5038873;28;20688;-80
2022/01/04 04:42:55;;;;;;;1.57;1.10;;;;;;;;;;5042118;28;21355;-79
2022/01/04 04:45:23;;;;;;;1.77;1.67;;;;;;;;;;5042039;28;20670;-79
2022/01/04 04:47:50;;;;;;;1.43;1.33;;;;;;;;;;5041368;28;20629;-80
2022/01/04 04:50:18;;;;;;;1.57;1.20;;;;;;;;;;5040765;28;20653;-80
2022/01/04 04:52:45;;;;;;;2.33;1.30;;;;;;;;;;5043253;28;20639;-80
2022/01/04 04:55:14;;;;;;;1.70;1.20;;;;;;;;;;5042642;28;21272;-79
2022/01/04 04:57:41;;;;;;;0.80;0.80;;;9.80;99.90;;;;;;5039037;28;20627;-80
2022/01/04 05:00:10;;;;;;;2.20;1.30;;;9.70;99.90;;;;;;5038355;28;20634;-79
2022/01/04 05:02:37;;;;;;;1.40;1.30;;;;;;;;;;5043085;28;20653;-79
2022/01/04 05:05:06;;;;;;;1.83;1.43;;;10.90;99.90;;;;;;5042303;28;21232;-80
2022/01/04 05:07:34;;;;;;;1.30;1.07;;;;;;;;;;5041963;28;20673;-80
2022/01/04 05:10:01;;;;;;;1.87;1.57;;;;;;;;;;5039271;28;20634;-80
2022/01/04 05:12:30;;;;;;;3.30;2.00;;;;;;;;;;5039580;28;20986;-80
2022/01/04 05:14:57;;;;;;;3.20;2.00;;;;;;;;;;5042009;28;20630;-80
2022/01/04 05:17:24;;;;;;;1.37;1.27;;;;;;;;;;5042882;28;20704;-80
2022/01/04 05:19:52;;;;;;;1.80;1.63;;;;;;;;;;5042232;28;20723;-80
2022/01/04 05:22:19;;;;;;;0.90;0.90;;;;;;;;;;5040051;28;20993;-80
2022/01/04 05:24:46;;;;;;;1.33;1.23;;;;;;;;;;5043605;28;21008;-80
2022/01/04 05:27:14;;;;;;;1.40;1.30;;;;;;;;;;5038781;28;20618;-81
2022/01/04 05:29:42;;;;;;;1.97;1.37;;;;;;;;;;5039766;28;20634;-84
2022/01/04 05:32:10;;;;;;;2.63;1.40;;;;;;;;;;5041521;28;20626;-82
2022/01/04 05:34:37;;;;;;;1.47;1.37;;;;;;;;;;5039791;28;20647;-81
2022/01/04 05:37:04;;;;;;;1.37;1.27;;;;;;;;;;5042809;28;20634;-80
2022/01/04 05:39:32;;;;;;;1.40;1.30;;;;;;;;;;5038848;28;20627;-80
2022/01/04 05:41:59;;;;;;;1.40;1.30;;;;;;;;;;5041849;28;20707;-80
2022/01/04 05:44:26;;;;;;;2.30;1.33;;;;;;;;;;5039570;28;20658;-80
2022/01/04 05:46:55;;;;;;;1.30;1.20;;;;;;;;;;5043328;28;21206;-80
2022/01/04 05:49:22;;;;;;;1.50;1.40;;;;;;;;;;5046117;28;20638;-80
2022/01/04 05:51:49;;;;;;;1.27;1.20;;;;;;;;;;5046268;28;21027;-80
2022/01/04 05:54:17;;;;;;;2.00;1.40;;;;;;;;;;5041185;28;20665;-80
2022/01/04 05:56:44;;;;;;;1.73;1.50;;;;;;;;;;5042458;28;20704;-80
2022/01/04 05:59:11;;;;;;;1.47;1.37;;;;;;;;;;5045971;28;20646;-80
2022/01/04 06:01:39;;;;;;;1.67;1.23;;;9.60;99.90;;;;;;5045786;28;20626;-80
2022/01/04 06:04:10;;;;;;;1.40;1.23;;;;;;;;;;5044243;28;21261;-80
2022/01/04 06:06:38;;;;;;;2.50;1.50;;;;;;;;;;5047110;28;20634;-80
2022/01/04 06:09:07;;;;;;;1.40;1.30;;;;;;;;;;5041749;28;21148;-80
2022/01/04 06:11:56;;;;;;;1.53;1.40;;;;;;;;;;5041121;28;20664;-79
2022/01/04 06:17:10;;;;;;;0.97;0.97;;;9.60;99.90;;;;;;5042396;28;20637;-80
2022/01/04 06:19:39;;;;;;;2.20;1.53;;;;;;;;;;5039918;28;20631;-80
2022/01/04 06:22:06;;;;;;;5.13;1.43;;;;;;;;;;5042446;28;20635;-80
2022/01/04 06:24:34;;;;;;;3.70;1.60;;;;;;;;;;5044712;28;20764;-81
2022/01/04 06:27:01;;;;;;;2.00;1.43;;;9.60;99.90;;;;;;5046121;28;20630;-80
2022/01/04 06:29:28;;;;;;;2.27;1.37;;;;;;;;;;5041735;28;20631;-80
2022/01/04 06:31:55;;;;;;;2.20;1.30;;;9.60;99.90;;;;;;5046389;28;21154;-80
2022/01/04 06:34:23;;;;;;;1.83;1.70;;;;;;;;;;5047488;28;20695;-80
2022/01/04 06:36:51;;;;;;;1.77;1.63;;;;;;;;;;5049099;28;20630;-80
2022/01/04 06:39:19;;;;;;;3.13;1.80;;;;;;;;;;5047624;28;20623;-80
2022/01/04 06:41:46;;;;;;;3.03;1.50;;;;;;;;;;5048793;28;21659;-81
2022/01/04 06:44:13;;;;;;;1.63;1.43;;;;;;;;;;5047449;28;20630;-80
2022/01/04 06:46:45;;;;;;;1.17;1.10;;;;;;;;;;5048309;28;20656;-81
2022/01/04 06:49:14;;;;;;;1.20;1.20;;;9.60;99.90;;;;;;5024935;28;20631;-81
2022/01/04 06:51:43;;;;;;;1.30;1.20;;;9.60;99.90;;;;;;5028540;28;20636;-79
2022/01/04 06:54:14;;;;;;;3.40;2.10;;;9.70;99.90;;;;;;5028568;28;21181;-81
2022/01/04 06:56:41;;;;;;;5.20;1.30;;;;;;;;;;5022757;28;20732;-80
2022/01/04 06:59:09;;;;;;;1.57;1.47;;;;;;;;;;5027532;28;21251;-81
2022/01/04 07:01:37;;;;;;;1.47;1.37;;;;;;;;;;5024950;28;20640;-81
2022/01/04 07:04:05;;;;;;;1.53;1.43;;;;;;;;;;5024813;28;20627;-82
2022/01/04 07:06:33;;;;;;;2.20;1.73;;;;;;;;;;5022748;28;20671;-81
2022/01/04 07:09:00;;;;;;;1.30;1.20;;;;;;;;;;5026678;28;20697;-81
2022/01/04 07:11:28;;;;;;;1.70;1.50;;;;;;;;;;5028352;28;20673;-81
2022/01/04 07:13:56;;;;;;;2.10;1.63;;;;;;;;;;5028505;28;20634;-81
2022/01/04 07:16:23;;;;;;;1.40;1.30;;;;;;;;;;5026918;28;20646;-81
2022/01/04 07:18:50;;;;;;;2.00;1.80;;;;;;;;;;5022837;28;20631;-82
2022/01/04 07:21:18;;;;;;;2.13;1.90;;;;;;;;;;5022415;28;21176;-81
2022/01/04 07:23:46;;;;;;;2.77;1.50;;;;;;;;;;5025493;28;20732;-81
2022/01/04 07:26:14;;;;;;;1.23;1.10;;;;;;;;;;5026599;28;20667;-81
2022/01/04 07:28:44;;;;;;;1.40;1.30;;;9.60;99.90;;;;;;5026692;28;20715;-81
2022/01/04 07:31:12;;;;;;;1.43;1.33;;;9.70;99.90;;;;;;5025180;28;20631;-82
2022/01/04 07:33:40;;;;;;;1.43;1.20;;;;;;;;;;5021972;28;20639;-82
2022/01/04 07:36:08;;;;;;;1.80;1.40;;;9.70;99.90;;;;;;5023763;28;21587;-81
2022/01/04 07:38:35;;;;;;;2.23;1.37;;;;;;;;;;5022024;28;20619;-81
2022/01/04 07:41:02;;;;;;;1.60;1.50;;;;;;;;;;5028443;28;20627;-81
2022/01/04 07:43:30;;;;;;;1.40;1.30;;;;;;;;;;5020377;28;20627;-81
2022/01/04 07:45:58;;;;;;;1.83;1.70;;;;;;;;;;5026350;28;20667;-82
2022/01/04 07:48:26;;;;;;;1.00;1.00;;;;;;;;;;5022197;28;20623;-81
2022/01/04 07:50:55;;;;;;;1.10;0.90;;;;;;;;;;5021316;28;20659;-80
2022/01/04 07:53:22;;;;;;;1.10;1.00;;;;;;;;;;5019709;28;20762;-81
2022/01/04 07:55:50;;;;;;;1.00;0.93;;;;;;;;;;5023460;28;21214;-81
2022/01/04 07:58:17;;;;;;;1.50;1.20;;;;;;;;;;5023502;28;20639;-81
2022/01/04 08:00:44;;;;;;;1.57;1.47;;;;;;;;;;5028220;28;21326;-80
2022/01/04 08:03:13;;;;;;;1.30;1.20;;;;;;;;;;5027399;28;20987;-81
2022/01/04 08:05:41;;;;;;;1.13;1.10;;;;;;;;;;5023908;28;20656;-80
2022/01/04 08:08:09;;;;;;;1.70;1.37;;;;;;;;;;5022185;28;20638;-81
2022/01/04 08:10:36;;;;;;;1.03;0.87;;;10.40;99.90;;;;;;5024258;28;20728;-80
2022/01/04 08:13:04;;;;;;;1.10;1.03;;;;;;;;;;5026710;28;20628;-81
2022/01/04 08:15:31;;;;;;;0.83;0.83;;;;;;;;;;5025489;28;20666;-81
2022/01/04 08:17:58;;;;;;;4.10;1.40;;;;;;;;;;5024146;28;20631;-80
2022/01/04 08:20:27;;;;;;;1.60;1.10;;;10.60;99.90;;;;;;5021869;28;20624;-80
2022/01/04 08:22:54;;;;;;;1.20;1.00;;;;;;;;;;5020871;28;20647;-80
2022/01/04 08:25:21;;;;;;;1.43;1.30;;;;;;;;;;5019710;28;21321;-80
2022/01/04 08:27:49;;;;;;;1.23;1.13;;;;;;;;;;5023247;28;20632;-80
2022/01/04 08:30:16;;;;;;;3.53;1.10;;;10.70;99.90;;;;;;5023723;28;20636;-80
2022/01/04 08:32:44;;;;;;;1.60;1.30;;;;;;;;;;5022497;28;20678;-81
2022/01/04 08:35:11;;;;;;;3.53;1.30;;;;;;;;;;5022318;28;20635;-81
2022/01/04 08:37:40;;;;;;;1.07;1.03;;;10.80;99.90;;;;;;5019849;28;20644;-81
2022/01/04 08:40:08;;;;;;;1.17;1.07;;;10.80;99.90;;;;;;5018961;28;21272;-81
2022/01/04 08:42:36;;;;;;;1.97;1.30;;;;;;;;;;5019197;28;20987;-81
2022/01/04 08:45:03;;;;;;;2.63;1.00;;;;;;;;;;5020169;28;20639;-81
2022/01/04 08:47:30;;;;;;;3.83;1.30;;;;;;;;;;5019715;28;20719;-80
2022/01/04 08:49:58;;;;;;;1.40;1.23;;;;;;;;;;5020607;28;20659;-82
2022/01/04 08:52:26;;;;;;;1.33;1.23;;;;;;;;;;5022031;28;21248;-81
2022/01/04 08:54:54;;;;;;;2.97;0.90;;;10.90;99.90;;;;;;5018830;28;20648;-82
2022/01/04 08:57:22;;;;;;;1.40;1.30;;;;;;;;;;5023084;28;20635;-82
2022/01/04 08:59:54;;;;;;;0.80;0.80;;;;;;;;;;5022705;28;20969;-82
2022/01/04 09:02:21;;;;;;;1.00;1.00;;;;;;;;;;5024228;28;20718;-83
2022/01/04 09:04:48;;;;;;;1.33;1.10;;;;;;;;;;5023170;28;20623;-83
2022/01/04 09:07:17;;;;;;;0.87;0.70;;;11.10;99.90;;;;;;5026510;28;20679;-83
2022/01/04 09:09:44;;;;;;;1.70;1.10;;;;;;;;;;5028424;28;20635;-83
2022/01/04 09:12:14;;;;;;;1.40;1.10;;;;;;;;;;5029051;28;20634;-84
2022/01/04 09:14:56;;;;;;;1.30;1.20;;;;;;;;;;5027985;28;20674;-83
2022/01/04 09:20:12;;;;;;;1.33;1.23;;;11.10;99.90;;;;;;5024123;28;20726;-84
2022/01/04 09:22:42;;;;;;;1.27;1.20;;;11.10;99.90;;;;;;5017231;28;20978;-84
2022/01/04 09:25:10;;;;;;;1.10;1.00;;;11.10;99.90;;;;;;5017624;28;20635;-84
2022/01/04 09:27:39;;;;;;;1.20;1.10;;;11.80;99.90;;;;;;5029127;28;20623;-84
2022/01/04 09:30:07;;;;;;;1.00;0.90;;;11.00;99.90;;;;;;5026235;28;20623;-83
2022/01/04 09:32:36;;;;;;;1.27;1.17;;;11.00;99.90;;;;;;5028220;28;20639;-82
2022/01/04 09:35:05;;;;;;;1.83;1.10;;;11.00;99.90;;;;;;5022088;28;20635;-83
2022/01/04 09:37:32;;;;;;;1.23;1.13;;;;;;;;;;5024270;28;21144;-83
2022/01/04 09:39:59;;;;;;;4.53;0.93;;;;;;;;;;5024381;28;20738;-82
2022/01/04 09:42:26;;;;;;;1.20;1.10;;;;;;;;;;5023170;28;20633;-82
2022/01/04 09:44:55;;;;;;;1.10;1.10;;;;;;;;;;5022491;28;20670;-81
2022/01/04 09:47:22;;;;;;;1.57;1.47;;;11.00;99.90;;;;;;5026782;28;20674;-81
2022/01/04 09:49:50;;;;;;;1.00;0.90;;;;;;;;;;5027135;28;20681;-81
2022/01/04 09:52:21;;;;;;;1.30;1.20;;;11.00;99.90;;;;;;5023876;28;20706;-81
2022/01/04 09:54:51;;;;;;;1.03;0.97;;;11.00;99.90;;;;;;5018551;28;20651;-81
2022/01/04 09:57:18;;;;;;;2.60;1.40;;;;;;;;;;5027167;28;20696;-81
2022/01/04 09:59:46;;;;;;;1.13;1.03;;;;;;;;;;5026285;28;20631;-80
2022/01/04 10:02:17;;;;;;;1.23;1.10;;;11.00;99.90;;;;;;5024673;28;21246;-80
2022/01/04 10:04:44;;;;;;;1.70;1.60;;;;;;;;;;5022358;28;21255;-80
2022/01/04 10:07:12;;;;;;;1.70;1.60;;;;;;;;;;5022327;28;20679;-79
2022/01/04 10:09:42;;;;;;;1.70;1.53;;;10.90;99.90;;;;;;5024898;28;20792;-81
2022/01/04 10:12:10;;;;;;;1.73;1.37;;;11.00;99.90;;;;;;5019439;28;20742;-80
2022/01/04 10:14:40;;;;;;;1.50;1.40;;;11.00;99.90;;;;;;5024060;28;21044;-81
2022/01/04 10:17:09;;;;;;;1.77;1.67;;;11.10;99.90;;;;;;5029508;28;20643;-81
2022/01/04 10:19:39;;;;;;;2.10;1.77;;;11.00;99.90;;;;;;5027409;28;20627;-81
2022/01/04 10:22:28;;;;;;;2.63;1.40;;;11.00;99.90;;;;;;5029065;28;20620;-80
2022/01/04 10:25:12;;;;;;;1.40;1.30;;;11.10;99.90;;;;;;5013971;28;20639;-81
2022/01/04 10:27:41;;;;;;;1.77;1.67;;;11.00;99.90;;;;;;5024514;28;20685;-82
2022/01/04 10:30:20;;;;;;;1.90;1.43;;;11.00;99.90;;;;;;5027770;28;20649;-82
2022/01/04 10:32:50;;;;;;;1.60;1.50;;;11.20;99.90;;;;;;5028201;28;20631;-81
2022/01/04 10:35:31;;;;;;;3.03;1.70;;;11.20;99.90;;;;;;5027210;28;21208;-82
2022/01/04 10:37:59;;;;;;;3.17;1.20;;;10.70;99.90;;;;;;5029118;28;20709;-81
2022/01/04 10:40:28;;;;;;;1.50;1.40;;;;;;;;;;5026400;28;20635;-82
2022/01/04 10:42:55;;;;;;;1.93;1.57;;;;;;;;;;5028154;28;20634;-83
2022/01/04 10:45:28;;;;;;;1.47;1.37;;;11.30;99.90;;;;;;5028565;28;20635;-83
2022/01/04 10:47:57;;;;;;;1.83;1.50;;;;;;;;;;5026000;28;20631;-83
2022/01/04 10:50:34;;;;;;;1.60;1.50;;;11.30;99.90;;;;;;5022529;28;20764;-84
2022/01/04 10:53:02;;;;;;;1.80;1.70;;;;;;;;;;5027558;28;20619;-85
2022/01/04 10:55:33;;;;;;;2.07;1.50;;;;;;;;;;5023086;28;20662;-84
2022/01/04 10:58:00;;;;;;;1.83;1.37;;;;;;;;;;5023755;28;20722;-84
2022/01/04 11:00:29;;;;;;;1.63;1.50;;;11.20;99.90;;;;;;5025058;28;20635;-83
2022/01/04 11:02:57;;;;;;;2.03;1.40;;;;;;;;;;5023728;28;20623;-83
2022/01/04 11:05:26;;;;;;;1.43;1.33;;;11.20;99.90;;;;;;5022941;28;21223;-85
2022/01/04 11:08:01;;;;;;;2.33;1.47;;;11.20;99.90;;;;;;5022060;28;20686;-83
2022/01/04 11:10:31;;;;;;;2.30;1.40;;;11.20;99.90;;;;;;5022479;28;20644;-84
2022/01/04 11:12:59;;;;;;;2.23;1.40;;;;;;;;;;5021409;28;20621;-83
2022/01/04 11:15:26;;;;;;;1.67;1.57;;;;;;;;;;5021365;28;20619;-84
2022/01/04 11:17:54;;;;;;;1.63;1.53;;;;;;;;;;5022790;28;20639;-84
2022/01/04 11:20:21;;;;;;;3.00;2.53;;;;;;;;;;5021926;28;20635;-84
2022/01/04 11:22:50;;;;;;;2.23;1.30;;;11.40;99.90;;;;;;5021706;28;21445;-84
2022/01/04 11:25:21;;;;;;;4.23;1.70;;;11.40;99.90;;;;;;5021372;28;20682;-84
2022/01/04 11:27:49;;;;;;;4.77;1.30;;;;;;;;;;5020685;28;20664;-85
2022/01/04 11:30:22;;;;;;;2.33;1.63;;;11.40;99.90;;;;;;5025013;28;20681;-84
2022/01/04 11:32:55;;;;;;;1.70;1.57;;;11.40;99.90;;;;;;5020193;28;20671;-84
2022/01/04 11:35:24;;;;;;;2.93;1.87;;;;;;;;;;5020261;28;21276;-85
2022/01/04 11:37:52;;;;;;;15.63;1.90;;;;;;;;;;5023019;28;20626;-84
2022/01/04 11:40:26;;;;;;;4.53;1.80;;;11.40;99.90;;;;;;5021406;28;20682;-84
2022/01/04 11:42:54;;;;;;;2.33;1.73;;;11.40;99.90;;;;;;5019684;28;20635;-85
2022/01/04 11:45:44;;;;;;;1.83;1.50;;;11.40;99.90;;;;;;5019181;28;20638;-84
2022/01/04 11:48:32;;;;;;;1.77;1.67;;;11.30;99.90;;;;;;5017505;28;20659;-84
2022/01/04 11:51:01;;;;;;;5.80;2.00;;;11.30;99.90;;;;;;5016452;28;20705;-84
2022/01/04 11:53:28;;;;;;;2.10;1.90;;;;;;;;;;5020496;28;21176;-84
2022/01/04 11:56:00;;;;;;;7.13;2.03;;;11.10;99.90;;;;;;5021696;28;20623;-85
2022/01/04 11:58:42;;;;;;;1.70;1.60;;;11.10;99.90;;;;;;5021616;28;20740;-86
2022/01/04 12:01:11;;;;;;;2.30;2.10;;;;;;;;;;5023614;28;20625;-85
2022/01/04 12:03:47;;;;;;;1.77;1.67;;;11.10;99.90;;;;;;5021211;28;21244;-83
2022/01/04 12:06:15;;;;;;;2.13;2.00;;;11.10;99.90;;;;;;5019371;28;20767;-85
2022/01/04 12:08:48;;;;;;;2.03;1.83;;;11.10;99.90;;;;;;5024299;28;20628;-86
2022/01/04 12:11:39;;;;;;;1.97;1.80;;;;;;;;;;5025236;28;20638;-85
2022/01/04 12:14:06;;;;;;;3.00;2.70;;;;;;;;;;5029981;28;20616;-86
2022/01/04 12:16:34;;;;;;;3.00;1.63;;;11.00;99.90;;;;;;5021059;28;21193;-86
2022/01/04 12:19:03;;;;;;;1.90;1.80;;;;;;;;;;5022504;28;20634;-86
2022/01/04 12:21:34;;;;;;;2.97;1.90;;;;;;;;;;5017731;28;20637;-86
2022/01/04 12:24:03;;;;;;;2.00;1.90;;;;;;;;;;5022987;28;20645;-86
2022/01/04 12:26:33;;;;;;;3.40;2.07;;;11.00;99.90;;;;;;5022362;28;20719;-85
2022/01/04 12:29:20;;;;;;;3.70;1.87;;;11.00;99.90;;;;;;5023597;28;20619;-85
2022/01/04 12:31:49;;;;;;;2.53;2.33;;;11.00;99.90;;;;;;5020036;28;20624;-84
2022/01/04 12:34:30;;;;;;;2.13;1.97;;;11.00;99.90;;;;;;5023356;28;20625;-87
2022/01/04 12:36:58;;;;;;;2.40;2.20;;;;;;;;;;5020120;28;20638;-85
2022/01/04 12:39:34;;;;;;;2.00;1.80;;;13.30;99.90;;;;;;5024754;28;20641;-86
2022/01/04 12:42:02;;;;;;;3.80;2.13;;;;;;;;;;5020580;28;20658;-86
2022/01/04 12:44:31;;;;;;;2.60;2.10;;;11.00;99.90;;;;;;5025599;28;20623;-85
2022/01/04 12:46:59;;;;;;;2.10;1.80;;;11.00;99.90;;;;;;5020764;28;20671;-86
2022/01/04 12:49:28;;;;;;;4.67;1.90;;;10.90;99.90;;;;;;5027833;28;20626;-83
2022/01/04 12:51:57;;;;;;;1.50;1.40;;;10.90;99.90;;;;;;5025687;28;20632;-84
2022/01/04 12:54:26;;;;;;;3.77;1.80;;;10.90;99.90;;;;;;5023029;28;20627;-84
2022/01/04 12:56:55;;;;;;;1.43;1.30;;;10.90;99.90;;;;;;5018671;28;20643;-85
2022/01/04 12:59:40;;;;;;;2.10;1.80;;;11.00;99.90;;;;;;5027745;28;20630;-85
2022/01/04 13:02:15;;;;;;;2.77;2.30;;;11.00;99.90;;;;;;5023791;28;20650;-85
2022/01/04 13:04:45;;;;;;;2.03;1.80;;;10.90;99.90;;;;;;5019203;28;20723;-84
2022/01/04 13:07:28;;;;;;;2.60;2.40;;;10.90;99.90;;;;;;5027270;28;20685;-84
2022/01/04 13:09:59;;;;;;;3.40;2.40;;;10.90;99.90;;;;;;5012362;28;20639;-84
2022/01/04 13:12:29;;;;;;;3.80;2.03;;;10.80;99.90;;;;;;5020409;28;20624;-85
2022/01/04 13:14:58;;;;;;;1.70;1.60;;;10.80;99.90;;;;;;5018982;28;20993;-85
2022/01/04 13:17:27;;;;;;;3.93;2.37;;;10.60;99.90;;;;;;5021744;28;20654;-84
2022/01/04 13:19:56;;;;;;;5.27;2.00;;;;;;;;;;5019579;28;20697;-84
2022/01/04 13:22:25;;;;;;;3.70;2.73;;;10.70;99.90;;;;;;5022083;28;21065;-83
2022/01/04 13:24:54;;;;;;;3.90;2.30;;;10.70;99.90;;;;;;5022373;28;20627;-83
2022/01/04 13:27:25;;;;;;;2.57;2.07;;;10.60;99.90;;;;;;5019810;28;20698;-82
2022/01/04 13:29:54;;;;;;;10.13;5.50;;;10.70;99.90;;;;;;5019543;28;20638;-81
2022/01/04 13:32:29;;;;;;;2.70;2.50;;;10.70;99.90;;;;;;5018602;28;20962;-81
2022/01/04 13:34:58;;;;;;;3.60;2.77;;;10.60;99.90;;;;;;5020238;28;21169;-81
2022/01/04 13:37:26;;;;;;;3.50;2.20;;;;;;;;;;5022071;28;20647;-82
2022/01/04 13:39:53;;;;;;;3.10;2.17;;;;;;;;;;5018569;28;20754;-82
2022/01/04 13:42:42;;;;;;;2.10;1.90;;;10.60;99.90;;;;;;5016080;28;21595;-81
2022/01/04 13:45:15;;;;;;;3.50;2.17;;;10.70;99.90;;;;;;5015559;28;20659;-81
2022/01/04 13:47:47;;;;;;;1.93;1.80;;;10.70;99.90;;;;;;5019452;28;20652;-81
2022/01/04 13:50:18;;;;;;;3.20;2.20;;;10.60;99.90;;;;;;5021998;28;20627;-81
2022/01/04 13:52:56;;;;;;;1.70;1.60;;;;;;;;;;5017187;28;20634;-81
2022/01/04 13:55:23;;;;;;;2.17;1.97;;;;;;;;;;5019338;28;20635;-81
2022/01/04 13:57:50;;;;;;;2.93;1.97;;;;;;;;;;5020792;28;20632;-80
2022/01/04 14:00:33;;;;;;;2.37;2.17;;;9.70;99.90;;;;;;5019335;28;20639;-81
2022/01/04 14:03:01;;;;;;;1.83;1.73;;;;;;;;;;5019883;28;20638;-81
2022/01/04 14:05:36;;;;;;;2.07;1.83;;;10.60;99.90;;;;;;5016996;28;20664;-80
2022/01/04 14:08:05;;;;;;;2.50;2.30;;;;;;;;;;5019638;28;20662;-81
2022/01/04 14:10:53;;;;;;;2.33;2.17;;;10.50;99.90;;;;;;5026178;28;20638;-81
2022/01/04 14:13:37;;;;;;;2.37;2.20;;;10.50;99.90;;;;;;5017267;28;20751;-80
2022/01/04 14:16:12;;;;;;;2.60;2.33;;;10.50;99.90;;;;;;5024781;28;20647;-80